San Diego/Miramar MCAS, California
Current Conditions -  °F | °C
As of 9:55 PM on Saturday 22 Nov 2014 (Local Time) from KNKX Reporting Station
Scattered Clouds Scattered Clouds  
Wind Chill: 56°   Ceiling: Unl
Heat Index: 56°   Visibility: 10mi
Dew Point: 52°   Wind: 3mph
Humidity: 87%   Direction: 100°E
Pressure: 30.06"   Gusts: NA
Location:  32.85°N, 117.12°W
Report Text: KNKX 230555Z 10003KT 10SM SCT013 13/11 A3006 RMK AO2 SLP175 T01330111 10200 20128 53006 $
Loading
Personal Weather Stations






























Interactive Weather Map New forecast layout! Learn more

10-Day Weather Forecast

Advertisements
Track Severe Weather on mobile